sensor_id;sensor_type;location;lat;lon;timestamp;P1;durP1;ratioP1;P2;durP2;ratioP2
77775;SDS011;66965;43.328;6.668;2023-05-10T00:00:27;4.17;;;1.50;;
77775;SDS011;66965;43.328;6.668;2023-05-10T00:02:52;2.80;;;1.30;;
77775;SDS011;66965;43.328;6.668;2023-05-10T00:05:18;4.00;;;1.40;;
77775;SDS011;66965;43.328;6.668;2023-05-10T00:07:43;4.22;;;1.50;;
77775;SDS011;66965;43.328;6.668;2023-05-10T00:10:10;3.88;;;1.48;;
77775;SDS011;66965;43.328;6.668;2023-05-10T00:12:35;3.53;;;1.67;;
77775;SDS011;66965;43.328;6.668;2023-05-10T00:15:00;5.00;;;1.97;;
77775;SDS011;66965;43.328;6.668;2023-05-10T00:17:26;4.13;;;1.53;;
77775;SDS011;66965;43.328;6.668;2023-05-10T00:19:51;4.90;;;1.40;;
77775;SDS011;66965;43.328;6.668;2023-05-10T00:22:16;3.07;;;1.60;;
77775;SDS011;66965;43.328;6.668;2023-05-10T00:24:41;5.47;;;1.70;;
77775;SDS011;66965;43.328;6.668;2023-05-10T00:27:07;3.50;;;1.50;;
77775;SDS011;66965;43.328;6.668;2023-05-10T00:29:32;4.97;;;1.67;;
77775;SDS011;66965;43.328;6.668;2023-05-10T00:31:58;3.78;;;1.48;;
77775;SDS011;66965;43.328;6.668;2023-05-10T00:34:24;4.27;;;1.50;;
77775;SDS011;66965;43.328;6.668;2023-05-10T00:36:49;3.42;;;1.60;;
77775;SDS011;66965;43.328;6.668;2023-05-10T00:39:15;8.73;;;1.83;;
77775;SDS011;66965;43.328;6.668;2023-05-10T00:41:40;4.37;;;1.90;;
77775;SDS011;66965;43.328;6.668;2023-05-10T00:44:05;3.73;;;1.70;;
77775;SDS011;66965;43.328;6.668;2023-05-10T00:46:30;3.10;;;1.70;;
77775;SDS011;66965;43.328;6.668;2023-05-10T00:48:56;4.05;;;1.60;;
77775;SDS011;66965;43.328;6.668;2023-05-10T00:51:22;4.35;;;1.90;;
77775;SDS011;66965;43.328;6.668;2023-05-10T00:53:47;4.43;;;1.92;;
77775;SDS011;66965;43.328;6.668;2023-05-10T00:56:13;3.50;;;1.63;;
77775;SDS011;66965;43.328;6.668;2023-05-10T00:58:41;3.70;;;1.67;;
77775;SDS011;66965;43.328;6.668;2023-05-10T01:01:07;3.47;;;1.63;;
77775;SDS011;66965;43.328;6.668;2023-05-10T01:03:32;3.17;;;1.45;;
77775;SDS011;66965;43.328;6.668;2023-05-10T01:05:58;3.35;;;1.60;;
77775;SDS011;66965;43.328;6.668;2023-05-10T01:08:23;4.73;;;1.53;;
77775;SDS011;66965;43.328;6.668;2023-05-10T01:10:49;3.63;;;1.50;;
77775;SDS011;66965;43.328;6.668;2023-05-10T01:13:17;4.60;;;1.60;;
77775;SDS011;66965;43.328;6.668;2023-05-10T01:15:43;2.60;;;1.30;;
77775;SDS011;66965;43.328;6.668;2023-05-10T01:18:09;3.00;;;1.30;;
77775;SDS011;66965;43.328;6.668;2023-05-10T01:20:36;3.50;;;1.70;;
77775;SDS011;66965;43.328;6.668;2023-05-10T01:41:12;2.75;;;1.13;;
77775;SDS011;66965;43.328;6.668;2023-05-10T01:43:42;3.95;;;1.05;;
77775;SDS011;66965;43.328;6.668;2023-05-10T01:46:12;3.03;;;1.27;;
77775;SDS011;66965;43.328;6.668;2023-05-10T01:48:47;4.03;;;1.20;;
77775;SDS011;66965;43.328;6.668;2023-05-10T01:51:23;3.00;;;1.00;;
77775;SDS011;66965;43.328;6.668;2023-05-10T01:53:50;2.20;;;0.85;;
77775;SDS011;66965;43.328;6.668;2023-05-10T01:56:16;2.47;;;1.20;;
77775;SDS011;66965;43.328;6.668;2023-05-10T01:58:44;3.78;;;1.50;;
77775;SDS011;66965;43.328;6.668;2023-05-10T02:01:11;2.83;;;1.10;;
77775;SDS011;66965;43.328;6.668;2023-05-10T02:03:37;3.55;;;1.20;;
77775;SDS011;66965;43.328;6.668;2023-05-10T02:06:03;3.55;;;1.15;;
77775;SDS011;66965;43.328;6.668;2023-05-10T02:10:55;3.50;;;1.30;;
77775;SDS011;66965;43.328;6.668;2023-05-10T02:13:21;2.83;;;1.15;;
77775;SDS011;66965;43.328;6.668;2023-05-10T02:15:48;3.47;;;1.00;;
77775;SDS011;66965;43.328;6.668;2023-05-10T02:18:13;2.97;;;1.10;;
77775;SDS011;66965;43.328;6.668;2023-05-10T02:20:40;2.17;;;0.80;;
77775;SDS011;66965;43.328;6.668;2023-05-10T02:25:31;2.38;;;1.00;;
77775;SDS011;66965;43.328;6.668;2023-05-10T02:27:57;2.35;;;0.90;;
77775;SDS011;66965;43.328;6.668;2023-05-10T02:30:25;4.03;;;1.73;;
77775;SDS011;66965;43.328;6.668;2023-05-10T02:32:50;3.42;;;1.00;;
77775;SDS011;66965;43.328;6.668;2023-05-10T02:35:16;2.28;;;0.90;;
77775;SDS011;66965;43.328;6.668;2023-05-10T02:37:42;2.63;;;0.93;;
77775;SDS011;66965;43.328;6.668;2023-05-10T02:40:08;3.75;;;1.38;;
77775;SDS011;66965;43.328;6.668;2023-05-10T02:42:35;2.15;;;0.98;;
77775;SDS011;66965;43.328;6.668;2023-05-10T02:45:02;3.22;;;1.00;;
77775;SDS011;66965;43.328;6.668;2023-05-10T02:47:28;2.38;;;0.98;;
77775;SDS011;66965;43.328;6.668;2023-05-10T02:49:54;5.13;;;0.98;;
77775;SDS011;66965;43.328;6.668;2023-05-10T02:52:21;3.40;;;0.90;;
77775;SDS011;66965;43.328;6.668;2023-05-10T02:54:48;2.17;;;1.00;;
77775;SDS011;66965;43.328;6.668;2023-05-10T02:57:20;4.43;;;1.00;;
77775;SDS011;66965;43.328;6.668;2023-05-10T02:59:48;3.67;;;1.05;;
77775;SDS011;66965;43.328;6.668;2023-05-10T03:02:13;2.60;;;1.07;;
77775;SDS011;66965;43.328;6.668;2023-05-10T03:04:38;2.57;;;0.83;;
77775;SDS011;66965;43.328;6.668;2023-05-10T03:07:04;4.03;;;1.17;;
77775;SDS011;66965;43.328;6.668;2023-05-10T03:09:30;2.30;;;0.70;;
77775;SDS011;66965;43.328;6.668;2023-05-10T03:12:10;2.58;;;1.00;;
77775;SDS011;66965;43.328;6.668;2023-05-10T03:14:45;2.33;;;0.80;;
77775;SDS011;66965;43.328;6.668;2023-05-10T03:17:31;2.58;;;1.05;;
77775;SDS011;66965;43.328;6.668;2023-05-10T03:20:03;2.65;;;0.98;;
77775;SDS011;66965;43.328;6.668;2023-05-10T03:22:32;2.60;;;1.10;;
77775;SDS011;66965;43.328;6.668;2023-05-10T03:24:59;2.20;;;0.82;;
77775;SDS011;66965;43.328;6.668;2023-05-10T03:27:26;2.50;;;0.77;;
77775;SDS011;66965;43.328;6.668;2023-05-10T03:29:52;1.98;;;0.90;;
77775;SDS011;66965;43.328;6.668;2023-05-10T03:32:18;1.83;;;0.85;;
77775;SDS011;66965;43.328;6.668;2023-05-10T03:34:43;3.00;;;1.10;;
77775;SDS011;66965;43.328;6.668;2023-05-10T03:37:09;2.58;;;1.00;;
77775;SDS011;66965;43.328;6.668;2023-05-10T03:39:34;2.08;;;0.90;;
77775;SDS011;66965;43.328;6.668;2023-05-10T03:41:59;2.17;;;0.83;;
77775;SDS011;66965;43.328;6.668;2023-05-10T03:44:25;2.33;;;1.00;;
77775;SDS011;66965;43.328;6.668;2023-05-10T03:46:50;1.83;;;0.80;;
77775;SDS011;66965;43.328;6.668;2023-05-10T03:49:15;2.23;;;0.90;;
77775;SDS011;66965;43.328;6.668;2023-05-10T03:51:40;2.07;;;0.87;;
77775;SDS011;66965;43.328;6.668;2023-05-10T03:54:06;2.90;;;1.00;;
77775;SDS011;66965;43.328;6.668;2023-05-10T03:56:31;2.97;;;0.85;;
77775;SDS011;66965;43.328;6.668;2023-05-10T03:58:57;3.28;;;1.02;;
77775;SDS011;66965;43.328;6.668;2023-05-10T04:01:22;3.63;;;1.13;;
77775;SDS011;66965;43.328;6.668;2023-05-10T04:03:48;2.73;;;0.93;;
77775;SDS011;66965;43.328;6.668;2023-05-10T04:06:13;2.27;;;1.13;;
77775;SDS011;66965;43.328;6.668;2023-05-10T04:08:38;4.82;;;1.35;;
77775;SDS011;66965;43.328;6.668;2023-05-10T04:11:04;1.77;;;0.80;;
77775;SDS011;66965;43.328;6.668;2023-05-10T04:13:30;2.70;;;1.13;;
77775;SDS011;66965;43.328;6.668;2023-05-10T04:15:55;2.17;;;0.97;;
77775;SDS011;66965;43.328;6.668;2023-05-10T04:18:20;2.70;;;1.07;;
77775;SDS011;66965;43.328;6.668;2023-05-10T04:20:45;2.07;;;0.80;;
77775;SDS011;66965;43.328;6.668;2023-05-10T04:23:11;3.90;;;1.00;;
77775;SDS011;66965;43.328;6.668;2023-05-10T04:25:36;3.17;;;0.97;;
77775;SDS011;66965;43.328;6.668;2023-05-10T04:28:01;1.77;;;0.80;;
77775;SDS011;66965;43.328;6.668;2023-05-10T04:30:26;2.80;;;1.00;;
77775;SDS011;66965;43.328;6.668;2023-05-10T04:32:54;2.33;;;1.00;;
77775;SDS011;66965;43.328;6.668;2023-05-10T04:35:19;2.37;;;0.93;;
77775;SDS011;66965;43.328;6.668;2023-05-10T04:37:44;4.83;;;1.00;;
77775;SDS011;66965;43.328;6.668;2023-05-10T04:40:10;2.87;;;1.10;;
77775;SDS011;66965;43.328;6.668;2023-05-10T04:42:35;1.58;;;0.88;;
77775;SDS011;66965;43.328;6.668;2023-05-10T04:45:01;3.72;;;1.10;;
77775;SDS011;66965;43.328;6.668;2023-05-10T04:47:26;2.53;;;0.90;;
77775;SDS011;66965;43.328;6.668;2023-05-10T04:49:51;2.30;;;0.90;;
77775;SDS011;66965;43.328;6.668;2023-05-10T04:52:17;2.87;;;0.93;;
77775;SDS011;66965;43.328;6.668;2023-05-10T04:54:42;2.08;;;0.80;;
77775;SDS011;66965;43.328;6.668;2023-05-10T04:57:08;2.13;;;0.90;;
77775;SDS011;66965;43.328;6.668;2023-05-10T04:59:35;3.23;;;1.17;;
77775;SDS011;66965;43.328;6.668;2023-05-10T05:02:00;3.35;;;0.90;;
77775;SDS011;66965;43.328;6.668;2023-05-10T05:04:26;2.10;;;0.80;;
77775;SDS011;66965;43.328;6.668;2023-05-10T05:06:51;2.80;;;0.97;;
77775;SDS011;66965;43.328;6.668;2023-05-10T05:09:16;3.33;;;1.00;;
77775;SDS011;66965;43.328;6.668;2023-05-10T05:11:41;3.43;;;1.00;;
77775;SDS011;66965;43.328;6.668;2023-05-10T05:14:07;3.37;;;0.97;;
77775;SDS011;66965;43.328;6.668;2023-05-10T05:16:32;2.23;;;1.00;;
77775;SDS011;66965;43.328;6.668;2023-05-10T05:18:57;3.73;;;1.10;;
77775;SDS011;66965;43.328;6.668;2023-05-10T05:21:22;3.90;;;0.90;;
77775;SDS011;66965;43.328;6.668;2023-05-10T05:23:48;2.28;;;0.98;;
77775;SDS011;66965;43.328;6.668;2023-05-10T05:26:14;1.73;;;0.80;;
77775;SDS011;66965;43.328;6.668;2023-05-10T05:28:40;2.55;;;0.70;;
77775;SDS011;66965;43.328;6.668;2023-05-10T05:31:05;2.63;;;0.80;;
77775;SDS011;66965;43.328;6.668;2023-05-10T05:33:31;3.83;;;0.75;;
77775;SDS011;66965;43.328;6.668;2023-05-10T05:35:56;2.70;;;0.80;;
77775;SDS011;66965;43.328;6.668;2023-05-10T05:38:21;2.20;;;0.87;;
77775;SDS011;66965;43.328;6.668;2023-05-10T05:40:47;1.50;;;0.77;;
77775;SDS011;66965;43.328;6.668;2023-05-10T05:43:12;2.53;;;1.13;;
77775;SDS011;66965;43.328;6.668;2023-05-10T05:45:38;3.33;;;0.80;;
77775;SDS011;66965;43.328;6.668;2023-05-10T05:48:03;2.57;;;0.80;;
77775;SDS011;66965;43.328;6.668;2023-05-10T05:50:29;2.83;;;0.73;;
77775;SDS011;66965;43.328;6.668;2023-05-10T05:52:54;2.17;;;0.90;;
77775;SDS011;66965;43.328;6.668;2023-05-10T05:55:20;1.65;;;0.60;;
77775;SDS011;66965;43.328;6.668;2023-05-10T05:57:45;2.37;;;0.73;;
77775;SDS011;66965;43.328;6.668;2023-05-10T06:00:10;1.23;;;0.63;;
77775;SDS011;66965;43.328;6.668;2023-05-10T06:02:36;2.08;;;1.25;;
77775;SDS011;66965;43.328;6.668;2023-05-10T06:05:01;1.90;;;0.70;;
77775;SDS011;66965;43.328;6.668;2023-05-10T06:07:27;1.55;;;0.63;;
77775;SDS011;66965;43.328;6.668;2023-05-10T06:09:52;0.93;;;0.60;;
77775;SDS011;66965;43.328;6.668;2023-05-10T06:12:18;1.47;;;0.60;;
77775;SDS011;66965;43.328;6.668;2023-05-10T06:14:43;1.40;;;0.43;;
77775;SDS011;66965;43.328;6.668;2023-05-10T06:17:08;2.37;;;0.63;;
77775;SDS011;66965;43.328;6.668;2023-05-10T06:19:33;1.73;;;0.73;;
77775;SDS011;66965;43.328;6.668;2023-05-10T06:21:59;1.33;;;0.60;;
77775;SDS011;66965;43.328;6.668;2023-05-10T06:24:24;3.50;;;0.77;;
77775;SDS011;66965;43.328;6.668;2023-05-10T06:26:49;0.87;;;0.40;;
77775;SDS011;66965;43.328;6.668;2023-05-10T06:29:15;1.10;;;0.40;;
77775;SDS011;66965;43.328;6.668;2023-05-10T06:31:40;1.97;;;0.50;;
77775;SDS011;66965;43.328;6.668;2023-05-10T06:34:05;0.90;;;0.30;;
77775;SDS011;66965;43.328;6.668;2023-05-10T06:36:32;1.08;;;0.50;;
77775;SDS011;66965;43.328;6.668;2023-05-10T06:38:58;1.07;;;0.50;;
77775;SDS011;66965;43.328;6.668;2023-05-10T06:41:23;0.67;;;0.40;;
77775;SDS011;66965;43.328;6.668;2023-05-10T06:43:48;1.17;;;0.47;;
77775;SDS011;66965;43.328;6.668;2023-05-10T06:46:14;1.23;;;0.37;;
77775;SDS011;66965;43.328;6.668;2023-05-10T06:48:39;1.23;;;0.43;;
77775;SDS011;66965;43.328;6.668;2023-05-10T06:51:04;1.77;;;0.47;;
77775;SDS011;66965;43.328;6.668;2023-05-10T06:53:29;1.58;;;0.60;;
77775;SDS011;66965;43.328;6.668;2023-05-10T06:55:55;1.02;;;0.40;;
77775;SDS011;66965;43.328;6.668;2023-05-10T06:58:20;1.35;;;0.60;;
77775;SDS011;66965;43.328;6.668;2023-05-10T07:00:45;2.93;;;0.43;;
77775;SDS011;66965;43.328;6.668;2023-05-10T07:03:12;1.23;;;0.52;;
77775;SDS011;66965;43.328;6.668;2023-05-10T07:05:37;1.97;;;0.40;;
77775;SDS011;66965;43.328;6.668;2023-05-10T07:08:02;1.13;;;0.50;;
77775;SDS011;66965;43.328;6.668;2023-05-10T07:10:28;0.82;;;0.30;;
77775;SDS011;66965;43.328;6.668;2023-05-10T07:12:53;0.70;;;0.40;;
77775;SDS011;66965;43.328;6.668;2023-05-10T07:15:18;0.87;;;0.30;;
77775;SDS011;66965;43.328;6.668;2023-05-10T07:17:43;0.67;;;0.37;;
77775;SDS011;66965;43.328;6.668;2023-05-10T07:20:09;1.07;;;0.47;;
77775;SDS011;66965;43.328;6.668;2023-05-10T07:22:34;0.82;;;0.40;;
77775;SDS011;66965;43.328;6.668;2023-05-10T07:25:00;0.70;;;0.33;;
77775;SDS011;66965;43.328;6.668;2023-05-10T07:27:25;0.60;;;0.30;;
77775;SDS011;66965;43.328;6.668;2023-05-10T07:29:50;0.93;;;0.40;;
77775;SDS011;66965;43.328;6.668;2023-05-10T07:32:15;0.50;;;0.30;;
77775;SDS011;66965;43.328;6.668;2023-05-10T07:34:41;5.50;;;0.40;;
77775;SDS011;66965;43.328;6.668;2023-05-10T07:37:06;0.47;;;0.33;;
77775;SDS011;66965;43.328;6.668;2023-05-10T07:39:32;2.45;;;0.40;;
77775;SDS011;66965;43.328;6.668;2023-05-10T07:41:57;0.40;;;0.30;;
77775;SDS011;66965;43.328;6.668;2023-05-10T07:44:23;1.17;;;0.40;;
77775;SDS011;66965;43.328;6.668;2023-05-10T07:46:48;3.53;;;0.50;;
77775;SDS011;66965;43.328;6.668;2023-05-10T07:49:14;1.98;;;0.55;;
77775;SDS011;66965;43.328;6.668;2023-05-10T07:51:39;2.00;;;0.40;;
77775;SDS011;66965;43.328;6.668;2023-05-10T07:54:05;1.73;;;0.60;;
77775;SDS011;66965;43.328;6.668;2023-05-10T07:56:30;0.87;;;0.30;;
77775;SDS011;66965;43.328;6.668;2023-05-10T07:58:57;5.75;;;0.63;;
77775;SDS011;66965;43.328;6.668;2023-05-10T08:01:22;0.85;;;0.32;;
77775;SDS011;66965;43.328;6.668;2023-05-10T08:03:48;1.50;;;0.40;;
77775;SDS011;66965;43.328;6.668;2023-05-10T08:06:19;1.75;;;0.38;;
77775;SDS011;66965;43.328;6.668;2023-05-10T08:11:14;2.60;;;0.52;;
77775;SDS011;66965;43.328;6.668;2023-05-10T08:13:39;1.10;;;0.30;;
77775;SDS011;66965;43.328;6.668;2023-05-10T08:16:04;0.28;;;0.20;;
77775;SDS011;66965;43.328;6.668;2023-05-10T08:18:30;1.77;;;0.45;;
77775;SDS011;66965;43.328;6.668;2023-05-10T08:20:55;2.47;;;0.37;;
77775;SDS011;66965;43.328;6.668;2023-05-10T08:23:20;2.30;;;0.30;;
77775;SDS011;66965;43.328;6.668;2023-05-10T08:25:46;0.63;;;0.20;;
77775;SDS011;66965;43.328;6.668;2023-05-10T08:28:11;1.13;;;0.87;;
77775;SDS011;66965;43.328;6.668;2023-05-10T08:30:36;1.07;;;0.40;;
77775;SDS011;66965;43.328;6.668;2023-05-10T08:33:01;1.57;;;0.40;;
77775;SDS011;66965;43.328;6.668;2023-05-10T08:35:27;0.73;;;0.23;;
77775;SDS011;66965;43.328;6.668;2023-05-10T08:37:52;0.63;;;0.30;;
77775;SDS011;66965;43.328;6.668;2023-05-10T08:40:18;2.60;;;1.23;;
77775;SDS011;66965;43.328;6.668;2023-05-10T08:42:47;0.68;;;0.25;;
77775;SDS011;66965;43.328;6.668;2023-05-10T08:47:41;1.23;;;0.30;;
77775;SDS011;66965;43.328;6.668;2023-05-10T08:50:07;1.80;;;0.50;;
77775;SDS011;66965;43.328;6.668;2023-05-10T08:52:32;2.30;;;0.50;;
77775;SDS011;66965;43.328;6.668;2023-05-10T08:54:58;1.15;;;0.47;;
77775;SDS011;66965;43.328;6.668;2023-05-10T08:57:23;0.38;;;0.20;;
77775;SDS011;66965;43.328;6.668;2023-05-10T08:59:48;2.08;;;0.47;;
77775;SDS011;66965;43.328;6.668;2023-05-10T09:02:14;0.30;;;0.20;;
77775;SDS011;66965;43.328;6.668;2023-05-10T09:04:39;2.30;;;0.40;;
77775;SDS011;66965;43.328;6.668;2023-05-10T09:07:04;0.67;;;0.30;;
77775;SDS011;66965;43.328;6.668;2023-05-10T09:09:30;1.02;;;0.35;;
77775;SDS011;66965;43.328;6.668;2023-05-10T09:11:56;0.30;;;0.30;;
77775;SDS011;66965;43.328;6.668;2023-05-10T09:14:21;3.40;;;0.40;;
77775;SDS011;66965;43.328;6.668;2023-05-10T09:19:12;0.88;;;0.50;;
77775;SDS011;66965;43.328;6.668;2023-05-10T09:21:37;0.57;;;0.30;;
77775;SDS011;66965;43.328;6.668;2023-05-10T09:24:06;0.73;;;0.20;;
77775;SDS011;66965;43.328;6.668;2023-05-10T09:26:32;1.25;;;0.45;;
77775;SDS011;66965;43.328;6.668;2023-05-10T09:28:57;0.43;;;0.20;;
77775;SDS011;66965;43.328;6.668;2023-05-10T09:31:23;1.15;;;0.28;;
77775;SDS011;66965;43.328;6.668;2023-05-10T09:33:50;1.38;;;0.30;;
77775;SDS011;66965;43.328;6.668;2023-05-10T09:36:15;0.70;;;0.30;;
77775;SDS011;66965;43.328;6.668;2023-05-10T09:38:59;1.65;;;0.40;;
77775;SDS011;66965;43.328;6.668;2023-05-10T09:43:50;1.55;;;0.30;;
77775;SDS011;66965;43.328;6.668;2023-05-10T09:46:15;0.85;;;0.30;;
77775;SDS011;66965;43.328;6.668;2023-05-10T09:48:44;1.15;;;0.35;;
77775;SDS011;66965;43.328;6.668;2023-05-10T09:51:10;0.90;;;0.13;;
77775;SDS011;66965;43.328;6.668;2023-05-10T09:53:35;2.38;;;0.10;;
77775;SDS011;66965;43.328;6.668;2023-05-10T09:56:00;1.27;;;0.30;;
77775;SDS011;66965;43.328;6.668;2023-05-10T09:58:26;1.10;;;0.40;;
77775;SDS011;66965;43.328;6.668;2023-05-10T10:00:51;1.43;;;0.30;;
77775;SDS011;66965;43.328;6.668;2023-05-10T10:03:18;1.88;;;0.40;;
77775;SDS011;66965;43.328;6.668;2023-05-10T10:05:44;1.58;;;0.43;;
77775;SDS011;66965;43.328;6.668;2023-05-10T10:08:09;2.67;;;0.43;;
77775;SDS011;66965;43.328;6.668;2023-05-10T10:13:00;1.98;;;0.52;;
77775;SDS011;66965;43.328;6.668;2023-05-10T10:15:26;0.82;;;0.28;;
77775;SDS011;66965;43.328;6.668;2023-05-10T10:20:17;2.73;;;0.60;;
77775;SDS011;66965;43.328;6.668;2023-05-10T10:25:11;3.67;;;0.93;;
77775;SDS011;66965;43.328;6.668;2023-05-10T10:27:56;0.47;;;0.17;;
77775;SDS011;66965;43.328;6.668;2023-05-10T10:35:22;1.63;;;0.35;;
77775;SDS011;66965;43.328;6.668;2023-05-10T10:40:26;4.07;;;0.60;;
77775;SDS011;66965;43.328;6.668;2023-05-10T10:42:52;2.10;;;0.47;;
77775;SDS011;66965;43.328;6.668;2023-05-10T10:45:18;1.48;;;0.35;;
77775;SDS011;66965;43.328;6.668;2023-05-10T10:50:10;0.75;;;0.40;;
77775;SDS011;66965;43.328;6.668;2023-05-10T10:52:38;1.25;;;0.38;;
77775;SDS011;66965;43.328;6.668;2023-05-10T10:57:31;2.27;;;0.50;;
77775;SDS011;66965;43.328;6.668;2023-05-10T11:07:32;2.80;;;0.65;;
77775;SDS011;66965;43.328;6.668;2023-05-10T11:10:03;2.30;;;0.60;;
77775;SDS011;66965;43.328;6.668;2023-05-10T11:12:29;0.60;;;0.30;;
77775;SDS011;66965;43.328;6.668;2023-05-10T11:17:24;1.60;;;0.40;;
77775;SDS011;66965;43.328;6.668;2023-05-10T11:20:02;4.05;;;0.60;;
77775;SDS011;66965;43.328;6.668;2023-05-10T11:22:28;2.00;;;0.47;;
77775;SDS011;66965;43.328;6.668;2023-05-10T11:27:18;2.63;;;0.55;;
77775;SDS011;66965;43.328;6.668;2023-05-10T11:32:10;1.42;;;0.32;;
77775;SDS011;66965;43.328;6.668;2023-05-10T11:34:35;9.68;;;1.52;;
77775;SDS011;66965;43.328;6.668;2023-05-10T11:39:26;0.93;;;0.47;;
77775;SDS011;66965;43.328;6.668;2023-05-10T11:41:52;1.95;;;0.40;;
77775;SDS011;66965;43.328;6.668;2023-05-10T11:46:43;6.17;;;0.90;;
77775;SDS011;66965;43.328;6.668;2023-05-10T11:51:34;2.17;;;0.73;;
77775;SDS011;66965;43.328;6.668;2023-05-10T11:54:04;1.17;;;0.57;;
77775;SDS011;66965;43.328;6.668;2023-05-10T11:56:32;1.70;;;0.70;;
77775;SDS011;66965;43.328;6.668;2023-05-10T11:58:57;1.45;;;0.40;;
77775;SDS011;66965;43.328;6.668;2023-05-10T12:03:48;2.60;;;1.10;;
77775;SDS011;66965;43.328;6.668;2023-05-10T12:06:14;3.25;;;0.75;;
77775;SDS011;66965;43.328;6.668;2023-05-10T12:08:44;2.88;;;0.70;;
77775;SDS011;66965;43.328;6.668;2023-05-10T12:11:09;1.73;;;0.80;;
77775;SDS011;66965;43.328;6.668;2023-05-10T12:13:40;4.07;;;1.15;;
77775;SDS011;66965;43.328;6.668;2023-05-10T12:18:31;1.80;;;0.60;;
77775;SDS011;66965;43.328;6.668;2023-05-10T12:23:21;1.98;;;0.50;;
77775;SDS011;66965;43.328;6.668;2023-05-10T12:28:12;2.85;;;0.60;;
77775;SDS011;66965;43.328;6.668;2023-05-10T12:30:37;2.05;;;0.80;;
77775;SDS011;66965;43.328;6.668;2023-05-10T12:35:31;3.67;;;0.73;;
77775;SDS011;66965;43.328;6.668;2023-05-10T12:37:56;1.73;;;0.95;;
77775;SDS011;66965;43.328;6.668;2023-05-10T12:42:47;2.07;;;0.60;;
77775;SDS011;66965;43.328;6.668;2023-05-10T12:45:13;2.63;;;0.75;;
77775;SDS011;66965;43.328;6.668;2023-05-10T12:50:04;3.47;;;1.17;;
77775;SDS011;66965;43.328;6.668;2023-05-10T12:52:29;3.72;;;0.75;;
77775;SDS011;66965;43.328;6.668;2023-05-10T12:54:56;1.83;;;0.52;;
77775;SDS011;66965;43.328;6.668;2023-05-10T12:59:47;0.73;;;0.60;;
77775;SDS011;66965;43.328;6.668;2023-05-10T13:02:12;3.03;;;0.90;;
77775;SDS011;66965;43.328;6.668;2023-05-10T13:07:05;1.60;;;0.60;;
77775;SDS011;66965;43.328;6.668;2023-05-10T13:09:30;2.40;;;0.75;;
77775;SDS011;66965;43.328;6.668;2023-05-10T13:11:56;3.20;;;0.80;;
77775;SDS011;66965;43.328;6.668;2023-05-10T13:14:21;2.87;;;0.90;;
77775;SDS011;66965;43.328;6.668;2023-05-10T13:19:12;3.53;;;0.77;;
77775;SDS011;66965;43.328;6.668;2023-05-10T13:24:02;2.35;;;0.80;;
77775;SDS011;66965;43.328;6.668;2023-05-10T13:26:28;2.33;;;0.80;;
77775;SDS011;66965;43.328;6.668;2023-05-10T13:31:20;3.28;;;0.95;;
77775;SDS011;66965;43.328;6.668;2023-05-10T13:36:11;3.10;;;0.80;;
77775;SDS011;66965;43.328;6.668;2023-05-10T13:41:01;5.10;;;0.90;;
77775;SDS011;66965;43.328;6.668;2023-05-10T13:43:26;4.27;;;1.03;;
77775;SDS011;66965;43.328;6.668;2023-05-10T13:48:17;1.95;;;0.70;;
77775;SDS011;66965;43.328;6.668;2023-05-10T13:53:07;2.67;;;0.90;;
77775;SDS011;66965;43.328;6.668;2023-05-10T13:57:58;2.78;;;0.93;;
77775;SDS011;66965;43.328;6.668;2023-05-10T14:02:49;3.83;;;1.10;;
77775;SDS011;66965;43.328;6.668;2023-05-10T14:05:14;3.53;;;0.80;;
77775;SDS011;66965;43.328;6.668;2023-05-10T14:10:04;3.13;;;0.80;;
77775;SDS011;66965;43.328;6.668;2023-05-10T14:14:55;2.05;;;0.63;;
77775;SDS011;66965;43.328;6.668;2023-05-10T14:19:45;5.47;;;1.10;;
77775;SDS011;66965;43.328;6.668;2023-05-10T14:24:36;3.50;;;0.67;;
77775;SDS011;66965;43.328;6.668;2023-05-10T14:29:26;3.78;;;0.90;;
77775;SDS011;66965;43.328;6.668;2023-05-10T14:31:52;3.83;;;0.70;;
77775;SDS011;66965;43.328;6.668;2023-05-10T14:34:17;2.43;;;0.67;;
77775;SDS011;66965;43.328;6.668;2023-05-10T14:39:08;2.88;;;0.80;;
77775;SDS011;66965;43.328;6.668;2023-05-10T14:41:35;3.85;;;0.80;;
77775;SDS011;66965;43.328;6.668;2023-05-10T14:46:26;5.00;;;1.27;;
77775;SDS011;66965;43.328;6.668;2023-05-10T14:48:51;2.23;;;0.70;;
77775;SDS011;66965;43.328;6.668;2023-05-10T14:51:16;3.07;;;1.10;;
77775;SDS011;66965;43.328;6.668;2023-05-10T14:53:43;3.17;;;0.98;;
77775;SDS011;66965;43.328;6.668;2023-05-10T14:58:34;3.58;;;1.08;;
77775;SDS011;66965;43.328;6.668;2023-05-10T15:03:24;2.75;;;0.75;;
77775;SDS011;66965;43.328;6.668;2023-05-10T15:05:49;3.30;;;0.90;;
77775;SDS011;66965;43.328;6.668;2023-05-10T15:10:40;4.00;;;1.00;;
77775;SDS011;66965;43.328;6.668;2023-05-10T15:15:30;8.00;;;0.90;;
77775;SDS011;66965;43.328;6.668;2023-05-10T15:17:56;1.67;;;0.68;;
77775;SDS011;66965;43.328;6.668;2023-05-10T15:20:21;3.20;;;1.00;;
77775;SDS011;66965;43.328;6.668;2023-05-10T15:22:47;4.67;;;1.07;;
77775;SDS011;66965;43.328;6.668;2023-05-10T15:25:12;2.70;;;0.60;;
77775;SDS011;66965;43.328;6.668;2023-05-10T15:27:38;1.83;;;0.73;;
77775;SDS011;66965;43.328;6.668;2023-05-10T15:30:03;6.30;;;1.37;;
77775;SDS011;66965;43.328;6.668;2023-05-10T15:32:28;2.17;;;0.80;;
77775;SDS011;66965;43.328;6.668;2023-05-10T15:34:54;3.07;;;1.00;;
77775;SDS011;66965;43.328;6.668;2023-05-10T15:37:19;2.67;;;0.82;;
77775;SDS011;66965;43.328;6.668;2023-05-10T15:42:10;2.72;;;0.90;;
77775;SDS011;66965;43.328;6.668;2023-05-10T15:44:35;3.47;;;0.60;;
77775;SDS011;66965;43.328;6.668;2023-05-10T15:47:03;3.50;;;0.90;;
77775;SDS011;66965;43.328;6.668;2023-05-10T15:49:29;4.43;;;1.00;;
77775;SDS011;66965;43.328;6.668;2023-05-10T15:51:54;4.10;;;0.90;;
77775;SDS011;66965;43.328;6.668;2023-05-10T15:54:19;4.23;;;0.90;;
77775;SDS011;66965;43.328;6.668;2023-05-10T15:56:45;5.10;;;1.23;;
77775;SDS011;66965;43.328;6.668;2023-05-10T15:59:10;6.07;;;0.93;;
77775;SDS011;66965;43.328;6.668;2023-05-10T16:01:35;2.72;;;0.82;;
77775;SDS011;66965;43.328;6.668;2023-05-10T16:04:01;4.40;;;1.07;;
77775;SDS011;66965;43.328;6.668;2023-05-10T16:06:26;2.20;;;0.70;;
77775;SDS011;66965;43.328;6.668;2023-05-10T16:08:52;5.00;;;0.90;;
77775;SDS011;66965;43.328;6.668;2023-05-10T16:11:17;2.50;;;0.90;;
77775;SDS011;66965;43.328;6.668;2023-05-10T16:13:42;3.30;;;1.17;;
77775;SDS011;66965;43.328;6.668;2023-05-10T16:16:07;3.80;;;0.93;;
77775;SDS011;66965;43.328;6.668;2023-05-10T16:18:33;2.53;;;1.10;;
77775;SDS011;66965;43.328;6.668;2023-05-10T16:20:58;6.55;;;1.00;;
77775;SDS011;66965;43.328;6.668;2023-05-10T16:23:24;4.68;;;0.98;;
77775;SDS011;66965;43.328;6.668;2023-05-10T16:25:50;6.13;;;1.23;;
77775;SDS011;66965;43.328;6.668;2023-05-10T16:28:15;4.90;;;0.98;;
77775;SDS011;66965;43.328;6.668;2023-05-10T16:30:41;2.60;;;1.00;;
77775;SDS011;66965;43.328;6.668;2023-05-10T16:33:06;3.63;;;1.30;;
77775;SDS011;66965;43.328;6.668;2023-05-10T16:35:31;4.53;;;0.93;;
77775;SDS011;66965;43.328;6.668;2023-05-10T16:37:56;3.83;;;1.07;;
77775;SDS011;66965;43.328;6.668;2023-05-10T16:40:22;6.17;;;1.13;;
77775;SDS011;66965;43.328;6.668;2023-05-10T16:42:48;2.75;;;1.15;;
77775;SDS011;66965;43.328;6.668;2023-05-10T16:45:13;2.73;;;0.80;;
77775;SDS011;66965;43.328;6.668;2023-05-10T16:47:39;3.10;;;1.00;;
77775;SDS011;66965;43.328;6.668;2023-05-10T16:50:05;2.55;;;0.98;;
77775;SDS011;66965;43.328;6.668;2023-05-10T16:52:31;2.03;;;0.80;;
77775;SDS011;66965;43.328;6.668;2023-05-10T16:54:56;5.07;;;1.00;;
77775;SDS011;66965;43.328;6.668;2023-05-10T16:57:22;3.60;;;0.93;;
77775;SDS011;66965;43.328;6.668;2023-05-10T16:59:47;3.03;;;0.80;;
77775;SDS011;66965;43.328;6.668;2023-05-10T17:02:13;2.33;;;0.93;;
77775;SDS011;66965;43.328;6.668;2023-05-10T17:04:38;3.97;;;0.80;;
77775;SDS011;66965;43.328;6.668;2023-05-10T17:07:03;4.03;;;0.83;;